createdAt,value
2022-12-19T00:01:21.781Z,-4.08
2022-12-19T00:03:23.230Z,-4.1
2022-12-19T00:05:25.034Z,-4
2022-12-19T00:07:27.045Z,-3.92
2022-12-19T00:09:28.782Z,-3.86
2022-12-19T00:11:30.767Z,-3.86
2022-12-19T00:13:33.669Z,-3.88
2022-12-19T00:15:33.650Z,-3.94
2022-12-19T00:19:36.645Z,-3.97
2022-12-19T00:21:38.019Z,-4.02
2022-12-19T00:23:39.753Z,-4.06
2022-12-19T00:25:41.662Z,-4.09
2022-12-19T00:27:43.251Z,-4.08
2022-12-19T00:29:44.471Z,-4.11
2022-12-19T00:31:46.577Z,-4.11
2022-12-19T00:33:47.989Z,-4.14
2022-12-19T00:35:49.877Z,-4.15
2022-12-19T00:37:51.928Z,-4.18
2022-12-19T00:39:54.001Z,-4.12
2022-12-19T00:41:55.702Z,-4.05
2022-12-19T00:43:57.253Z,-4.03
2022-12-19T00:45:58.733Z,-4.08
2022-12-19T00:48:00.513Z,-4.03
2022-12-19T00:50:01.964Z,-4.02
2022-12-19T00:52:03.959Z,-4.03
2022-12-19T00:54:06.782Z,-4.09
2022-12-19T00:56:06.606Z,-4.11
2022-12-19T00:58:08.150Z,-4.11
2022-12-19T01:02:11.363Z,-4.14
2022-12-19T01:04:28.009Z,-4.13
2022-12-19T01:06:13.812Z,-4.11
2022-12-19T01:08:15.180Z,-4.1
2022-12-19T01:10:16.748Z,-4.12
2022-12-19T01:12:18.093Z,-4.14
2022-12-19T01:14:22.707Z,-4.12
2022-12-19T01:16:21.239Z,-4.12
2022-12-19T01:18:22.930Z,-4.11
2022-12-19T01:20:27.599Z,-4.13
2022-12-19T01:22:26.168Z,-4.12
2022-12-19T01:24:27.806Z,-4.09
2022-12-19T01:26:29.000Z,-4.07
2022-12-19T01:28:30.919Z,-4.04
2022-12-19T01:30:32.179Z,-4.03
2022-12-19T01:32:33.717Z,-3.99
2022-12-19T01:34:35.731Z,-3.98
2022-12-19T01:36:39.665Z,-3.98
2022-12-19T01:38:38.727Z,-3.97
2022-12-19T01:40:40.121Z,-3.96
2022-12-19T01:42:42.234Z,-3.9
2022-12-19T01:44:43.486Z,-3.94
2022-12-19T01:46:45.232Z,-3.93
2022-12-19T01:48:46.977Z,-3.89
2022-12-19T01:50:50.099Z,-3.91
2022-12-19T01:52:50.116Z,-3.89
2022-12-19T01:54:51.699Z,-3.84
2022-12-19T01:56:53.704Z,-3.86
2022-12-19T01:58:57.414Z,-3.85
2022-12-19T02:00:56.115Z,-3.79
2022-12-19T02:02:58.279Z,-3.76
2022-12-19T02:05:00.160Z,-3.76
2022-12-19T02:07:02.016Z,-3.76
2022-12-19T02:09:03.128Z,-3.73
2022-12-19T02:11:04.381Z,-3.73
2022-12-19T02:13:05.970Z,-3.76
2022-12-19T02:15:07.182Z,-3.82
2022-12-19T02:17:08.952Z,-3.78
2022-12-19T02:19:10.334Z,-3.77
2022-12-19T02:21:11.511Z,-3.85
2022-12-19T02:23:12.754Z,-3.85
2022-12-19T02:25:14.000Z,-3.73
2022-12-19T02:27:15.690Z,-3.64
2022-12-19T02:27:59.672Z,-3.55
2022-12-19T02:30:01.480Z,-3.53
2022-12-19T02:32:02.766Z,-3.58
2022-12-19T02:34:04.719Z,-3.5
2022-12-19T02:36:06.132Z,-3.28
2022-12-19T02:38:08.407Z,-3.19
2022-12-19T02:40:09.299Z,-3.27
2022-12-19T02:42:11.358Z,-3.33
2022-12-19T02:44:12.627Z,-3.31
2022-12-19T02:46:14.662Z,-3.31
2022-12-19T02:48:19.205Z,-3.32
2022-12-19T02:50:17.929Z,-3.29
2022-12-19T02:52:19.884Z,-3.19
2022-12-19T02:54:21.979Z,-3.01
2022-12-19T02:56:23.569Z,-3
2022-12-19T02:58:25.397Z,-3.15
2022-12-19T03:00:26.617Z,-3.05
2022-12-19T03:02:28.533Z,-2.98
2022-12-19T03:04:30.202Z,-2.91
2022-12-19T03:06:31.833Z,-2.88
2022-12-19T03:08:33.827Z,-2.86
2022-12-19T03:10:35.604Z,-2.88
2022-12-19T03:12:37.655Z,-2.84
2022-12-19T03:14:39.203Z,-2.83
2022-12-19T03:16:40.620Z,-2.8
2022-12-19T03:18:41.780Z,-2.77
2022-12-19T03:20:43.131Z,-2.7
2022-12-19T03:22:44.845Z,-2.71
2022-12-19T03:24:46.223Z,-2.69
2022-12-19T03:26:48.069Z,-2.64
2022-12-19T03:28:49.811Z,-2.62
2022-12-19T03:30:51.763Z,-2.61
2022-12-19T03:32:53.292Z,-2.61
2022-12-19T03:34:54.794Z,-2.66
2022-12-19T03:36:56.497Z,-2.62
2022-12-19T03:38:57.939Z,-2.62
2022-12-19T03:41:00.025Z,-2.67
2022-12-19T03:43:01.761Z,-2.62
2022-12-19T03:45:03.357Z,-2.59
2022-12-19T03:47:04.459Z,-2.59
2022-12-19T03:49:06.077Z,-2.54
2022-12-19T03:51:07.530Z,-2.51
2022-12-19T03:53:08.715Z,-2.49
2022-12-19T03:55:10.577Z,-2.53
2022-12-19T03:57:11.645Z,-2.49
2022-12-19T03:59:13.431Z,-2.45
2022-12-19T04:01:15.428Z,-2.42
2022-12-19T04:03:17.190Z,-2.43
2022-12-19T04:05:18.817Z,-2.39
2022-12-19T04:07:20.855Z,-2.37
2022-12-19T04:09:22.649Z,-2.32
2022-12-19T04:11:23.194Z,-2.29
2022-12-19T04:13:25.108Z,-2.29
2022-12-19T04:15:26.892Z,-2.28
2022-12-19T04:17:28.543Z,-2.34
2022-12-19T04:19:29.859Z,-2.37
2022-12-19T04:21:31.584Z,-2.33
2022-12-19T04:23:33.026Z,-2.34
2022-12-19T04:25:35.066Z,-2.34
2022-12-19T04:27:37.052Z,-2.38
2022-12-19T04:29:38.166Z,-2.48
2022-12-19T04:31:39.506Z,-2.58
2022-12-19T04:33:41.078Z,-2.59
2022-12-19T04:35:42.941Z,-2.6
2022-12-19T04:37:44.495Z,-2.62
2022-12-19T04:39:45.793Z,-2.6
2022-12-19T04:41:47.488Z,-2.6
2022-12-19T04:43:49.202Z,-2.59
2022-12-19T04:45:54.106Z,-2.56
2022-12-19T04:47:51.950Z,-2.58
2022-12-19T04:49:53.077Z,-2.54
2022-12-19T04:51:54.771Z,-2.53
2022-12-19T04:53:56.050Z,-2.55
2022-12-19T04:55:57.603Z,-2.52
2022-12-19T04:57:59.327Z,-2.52
2022-12-19T05:00:00.615Z,-2.52
2022-12-19T05:02:02.546Z,-2.49
2022-12-19T05:04:04.740Z,-2.49
2022-12-19T05:06:05.519Z,-2.46
2022-12-19T05:08:07.336Z,-2.47
2022-12-19T05:10:08.468Z,-2.44
2022-12-19T05:12:09.946Z,-2.41
2022-12-19T05:14:11.163Z,-2.38
2022-12-19T05:16:13.097Z,-2.39
2022-12-19T05:18:14.278Z,-2.4
2022-12-19T05:20:16.054Z,-2.34
2022-12-19T05:22:18.041Z,-2.33
2022-12-19T05:24:19.658Z,-2.34
2022-12-19T05:26:20.805Z,-2.34
2022-12-19T05:28:22.258Z,-2.29
2022-12-19T05:30:24.195Z,-2.3
2022-12-19T05:32:25.740Z,-2.29
2022-12-19T05:34:27.702Z,-2.28
2022-12-19T05:36:32.398Z,-2.24
2022-12-19T05:38:30.128Z,-2.25
2022-12-19T05:40:31.649Z,-2.22
2022-12-19T05:42:33.442Z,-2.22
2022-12-19T05:44:35.491Z,-2.21
2022-12-19T05:46:36.630Z,-2.15
2022-12-19T05:48:38.508Z,-2.15
2022-12-19T05:50:40.289Z,-2.15
2022-12-19T05:52:42.443Z,-2.16
2022-12-19T05:54:44.232Z,-2.14
2022-12-19T05:56:45.701Z,-2.15
2022-12-19T05:58:47.153Z,-2.15
2022-12-19T06:00:48.407Z,-2.17
2022-12-19T06:02:50.323Z,-2.19
2022-12-19T06:04:51.460Z,-2.15
2022-12-19T06:06:52.770Z,-2.14
2022-12-19T06:08:53.922Z,-2.15
2022-12-19T06:10:55.623Z,-2.16
2022-12-19T06:12:56.976Z,-2.13
2022-12-19T06:14:58.735Z,-2.13
2022-12-19T06:17:00.732Z,-2.06
2022-12-19T06:19:01.995Z,-2.11
2022-12-19T06:21:03.918Z,-2.05
2022-12-19T06:23:05.008Z,-2.03
2022-12-19T06:25:06.861Z,-2.02
2022-12-19T06:27:08.258Z,-1.99
2022-12-19T06:29:10.042Z,-1.99
2022-12-19T06:31:11.774Z,-2
2022-12-19T06:33:13.658Z,-2.04
2022-12-19T06:35:15.307Z,-2
2022-12-19T06:37:16.877Z,-2.01
2022-12-19T06:39:18.389Z,-2.01
2022-12-19T06:41:20.363Z,-1.99
2022-12-19T06:43:21.676Z,-1.97
2022-12-19T06:45:23.595Z,-1.97
2022-12-19T06:47:24.952Z,-1.95
2022-12-19T06:49:26.505Z,-1.87
2022-12-19T06:51:28.418Z,-1.84
2022-12-19T06:53:29.795Z,-1.78
2022-12-19T06:55:31.793Z,-1.74
2022-12-19T06:57:33.261Z,-1.75
2022-12-19T06:59:34.812Z,-1.78
2022-12-19T07:01:36.247Z,-1.76
2022-12-19T07:03:38.217Z,-1.74
2022-12-19T07:05:40.022Z,-1.71
2022-12-19T07:07:41.255Z,-1.73
2022-12-19T07:09:43.171Z,-1.72
2022-12-19T07:11:44.781Z,-1.75
2022-12-19T07:13:46.396Z,-1.73
2022-12-19T07:15:47.828Z,-1.81
2022-12-19T07:17:49.071Z,-1.86
2022-12-19T07:19:51.036Z,-1.95
2022-12-19T07:21:52.903Z,-1.96
2022-12-19T07:23:54.069Z,-1.94
2022-12-19T07:25:55.642Z,-1.95
2022-12-19T07:27:56.780Z,-1.97
2022-12-19T07:29:58.622Z,-1.97
2022-12-19T07:32:00.283Z,-2
2022-12-19T07:34:02.191Z,-2.01
2022-12-19T07:36:03.892Z,-2
2022-12-19T07:38:05.120Z,-1.99
2022-12-19T07:40:07.020Z,-1.99
2022-12-19T07:42:08.242Z,-1.97
2022-12-19T07:44:09.568Z,-1.97
2022-12-19T07:46:11.039Z,-1.95
2022-12-19T07:48:12.522Z,-1.95
2022-12-19T07:50:13.694Z,-1.96
2022-12-19T07:52:15.365Z,-1.95
2022-12-19T07:54:16.428Z,-1.94
2022-12-19T07:56:18.528Z,-1.85
2022-12-19T07:58:19.956Z,-1.75
2022-12-19T08:00:22.031Z,-1.71
2022-12-19T08:02:23.829Z,-1.78
2022-12-19T08:04:24.999Z,-1.73
2022-12-19T08:06:26.112Z,-1.67
2022-12-19T08:08:27.531Z,-1.67
2022-12-19T08:10:28.959Z,-1.6
2022-12-19T08:12:30.260Z,-1.54
2022-12-19T08:14:31.838Z,-1.48
2022-12-19T08:18:34.554Z,-1.27
2022-12-19T08:20:36.200Z,-1.23
2022-12-19T08:22:37.794Z,-1.22
2022-12-19T08:24:39.158Z,-1.2
2022-12-19T08:26:43.258Z,-1.26
2022-12-19T08:28:41.919Z,-1.3
2022-12-19T08:30:43.143Z,-1.27
2022-12-19T08:32:44.836Z,-1.25
2022-12-19T08:34:46.008Z,-1.31
2022-12-19T08:36:47.463Z,-1.31
2022-12-19T08:38:49.909Z,-1.23
2022-12-19T08:40:50.799Z,-1.23
2022-12-19T08:42:52.363Z,-1.19
2022-12-19T08:44:53.804Z,-1.2
2022-12-19T08:46:55.721Z,-1.13
2022-12-19T08:48:56.837Z,-1.02
2022-12-19T08:50:58.523Z,-0.99
2022-12-19T08:53:00.445Z,-0.92
2022-12-19T08:55:01.565Z,-0.8
2022-12-19T08:57:03.278Z,-0.84
2022-12-19T08:59:04.301Z,-0.93
2022-12-19T09:01:06.163Z,-0.92
2022-12-19T09:03:08.090Z,-0.97
2022-12-19T09:06:02.733Z,-0.81
2022-12-19T09:07:10.203Z,-0.8
2022-12-19T09:09:11.442Z,-0.69
2022-12-19T09:11:12.687Z,-0.63
2022-12-19T09:13:14.391Z,-0.57
2022-12-19T09:16:00.194Z,-0.45
2022-12-19T09:18:01.998Z,-0.38
2022-12-19T09:20:03.293Z,-0.29
2022-12-19T09:22:04.519Z,-0.21
2022-12-19T09:24:07.790Z,-0.23
2022-12-19T09:26:07.277Z,-0.26
2022-12-19T09:28:27.556Z,-0.3
2022-12-19T09:30:10.673Z,-0.26
2022-12-19T09:32:12.642Z,-0.23
2022-12-19T09:34:14.577Z,-0.39
2022-12-19T09:36:15.927Z,-0.36
2022-12-19T09:38:17.534Z,-0.42
2022-12-19T09:40:19.086Z,-0.37
2022-12-19T09:42:20.402Z,-0.33
2022-12-19T09:44:22.048Z,-0.3
2022-12-19T09:46:23.393Z,-0.3
2022-12-19T09:48:25.108Z,-0.28
2022-12-19T09:50:26.834Z,-0.21
2022-12-19T09:52:28.432Z,-0.09
2022-12-19T09:54:30.140Z,-0.01
2022-12-19T09:56:33.118Z,-0.04
2022-12-19T09:58:33.312Z,-0.01
2022-12-19T10:00:34.622Z,0.03
2022-12-19T10:02:36.080Z,0.18
2022-12-19T10:04:37.754Z,0.27
2022-12-19T10:07:10.679Z,0.42
2022-12-19T10:09:00.237Z,0.49
2022-12-19T10:11:47.669Z,0.67
2022-12-19T10:12:50.910Z,0.53
2022-12-19T10:14:45.620Z,0.76
2022-12-19T10:17:01.960Z,0.93
2022-12-19T10:18:51.252Z,1.07
2022-12-19T10:20:49.538Z,1.1
2022-12-19T10:22:51.116Z,0.83
2022-12-19T10:24:59.594Z,0.83
2022-12-19T10:26:54.351Z,0.85
2022-12-19T10:28:55.549Z,0.92
2022-12-19T10:30:56.624Z,1.09
2022-12-19T10:32:58.105Z,1.18
2022-12-19T10:34:59.957Z,1.23
2022-12-19T10:37:23.321Z,1.08
2022-12-19T10:39:02.759Z,0.89
2022-12-19T10:41:04.329Z,0.75
2022-12-19T10:43:11.040Z,0.74
2022-12-19T10:45:06.863Z,0.74
2022-12-19T10:47:08.822Z,0.72
2022-12-19T10:49:09.954Z,0.75
2022-12-19T10:51:11.116Z,0.81
2022-12-19T10:53:12.233Z,0.95
2022-12-19T10:55:13.678Z,0.82
2022-12-19T10:57:14.822Z,0.99
2022-12-19T10:59:16.158Z,1.05
2022-12-19T11:01:17.887Z,1.11
2022-12-19T11:03:19.774Z,1.22
2022-12-19T11:05:20.996Z,1.25
2022-12-19T11:07:22.268Z,1.26
2022-12-19T11:09:23.609Z,1.42
2022-12-19T11:12:26.767Z,1.52
2022-12-19T11:16:30.356Z,1.71
2022-12-19T11:17:14.408Z,1.74
2022-12-19T11:18:58.010Z,1.85
2022-12-19T11:24:10.125Z,1.77
2022-12-19T11:29:27.990Z,1.56
2022-12-19T11:29:28.093Z,1.41
2022-12-19T11:29:29.596Z,1.39
2022-12-19T11:30:24.033Z,1.13
2022-12-19T11:32:20.968Z,0.99
2022-12-19T11:33:40.397Z,0.83
2022-12-19T11:35:42.296Z,0.78
2022-12-19T11:37:44.119Z,0.83
2022-12-19T11:39:46.118Z,0.8
2022-12-19T11:41:47.657Z,0.82
2022-12-19T11:43:49.028Z,0.86
2022-12-19T11:45:50.677Z,0.87
2022-12-19T11:47:52.447Z,0.95
2022-12-19T11:49:54.031Z,0.94
2022-12-19T11:51:55.183Z,1.05
2022-12-19T11:53:56.820Z,1.03
2022-12-19T11:55:58.387Z,1.11
2022-12-19T11:58:00.341Z,1.2
2022-12-19T12:00:05.209Z,1.32
2022-12-19T12:02:03.248Z,1.45
2022-12-19T12:04:05.143Z,1.44
2022-12-19T12:06:06.414Z,1.47
2022-12-19T12:08:54.393Z,1.62
2022-12-19T12:10:56.280Z,1.66
2022-12-19T12:14:38.916Z,1.74
2022-12-19T12:17:07.487Z,1.83
2022-12-19T12:21:18.694Z,1.84
2022-12-19T12:24:17.682Z,1.96
2022-12-19T12:26:21.824Z,1.94
2022-12-19T12:27:35.104Z,1.84
2022-12-19T12:31:03.483Z,1.86
2022-12-19T12:31:33.541Z,1.98
2022-12-19T12:31:34.609Z,1.75
2022-12-19T12:31:36.512Z,1.88
2022-12-19T12:35:26.039Z,2
2022-12-19T12:35:27.080Z,1.85
2022-12-19T12:37:45.836Z,2.06
2022-12-19T12:38:32.833Z,2.14
2022-12-19T12:40:33.739Z,1.97
2022-12-19T12:42:35.600Z,2.01
2022-12-19T12:44:41.301Z,2.04
2022-12-19T12:46:38.953Z,1.97
2022-12-19T12:48:40.138Z,1.94
2022-12-19T12:50:41.638Z,1.87
2022-12-19T12:52:43.330Z,1.88
2022-12-19T12:54:44.982Z,1.9
2022-12-19T12:56:46.140Z,1.78
2022-12-19T12:58:48.012Z,1.8
2022-12-19T13:00:49.921Z,1.7
2022-12-19T13:02:51.859Z,1.63
2022-12-19T13:04:53.938Z,1.64
2022-12-19T13:06:54.813Z,1.56
2022-12-19T13:08:56.855Z,1.48
2022-12-19T13:10:58.568Z,1.48
2022-12-19T13:13:00.244Z,1.48
2022-12-19T13:15:01.504Z,1.49
2022-12-19T13:17:03.397Z,1.48
2022-12-19T13:19:04.528Z,1.49
2022-12-19T13:21:06.425Z,1.49
2022-12-19T13:23:08.063Z,1.56
2022-12-19T13:25:09.780Z,1.55
2022-12-19T13:27:11.386Z,1.62
2022-12-19T13:29:13.294Z,1.61
2022-12-19T13:31:18.304Z,1.63
2022-12-19T13:33:17.012Z,1.55
2022-12-19T13:36:15.475Z,1.55
2022-12-19T13:39:53.461Z,1.61
2022-12-19T13:39:53.699Z,1.54
2022-12-19T13:41:23.726Z,1.62
2022-12-19T13:43:24.950Z,1.6
2022-12-19T13:45:27.002Z,1.57
2022-12-19T13:47:28.857Z,1.6
2022-12-19T13:49:31.263Z,1.61
2022-12-19T13:51:31.819Z,1.59
2022-12-19T13:53:33.178Z,1.59
2022-12-19T13:55:34.382Z,1.61
2022-12-19T13:57:36.354Z,1.62
2022-12-19T13:59:38.252Z,1.59
2022-12-19T14:01:40.124Z,1.56
2022-12-19T14:03:41.635Z,1.54
2022-12-19T14:06:15.400Z,1.57
2022-12-19T14:07:45.311Z,1.58
2022-12-19T14:11:25.326Z,1.57
2022-12-19T14:12:14.346Z,1.57
2022-12-19T14:13:58.769Z,1.55
2022-12-19T14:15:51.948Z,1.59
2022-12-19T14:17:53.651Z,1.54
2022-12-19T14:20:06.725Z,1.51
2022-12-19T14:22:03.051Z,1.46
2022-12-19T14:23:58.459Z,1.46
2022-12-19T14:28:16.134Z,1.42
2022-12-19T14:28:27.456Z,1.46
2022-12-19T14:30:29.604Z,1.39
2022-12-19T14:33:15.243Z,1.34
2022-12-19T14:34:43.611Z,1.3
2022-12-19T14:36:14.501Z,1.25
2022-12-19T14:38:54.245Z,1.26
2022-12-19T14:40:13.031Z,1.19
2022-12-19T14:42:14.425Z,1.2
2022-12-19T14:49:40.548Z,1.1
2022-12-19T14:51:42.497Z,1.1
2022-12-19T14:51:43.313Z,1.12
2022-12-19T14:52:36.331Z,1.06
2022-12-19T14:54:19.620Z,1.05
2022-12-19T14:56:47.077Z,1.03
2022-12-19T14:58:51.941Z,1.02
2022-12-19T15:00:50.546Z,1.03
2022-12-19T15:02:32.107Z,1.03
2022-12-19T15:04:49.837Z,1.03
2022-12-19T15:07:06.492Z,1.04
2022-12-19T15:09:01.519Z,1.04
2022-12-19T15:11:01.893Z,1.02
2022-12-19T15:12:39.502Z,1
2022-12-19T15:14:50.426Z,0.98
2022-12-19T15:16:42.040Z,0.89
2022-12-19T15:18:43.640Z,0.83
2022-12-19T15:20:45.374Z,0.8
2022-12-19T15:22:46.551Z,0.77
2022-12-19T15:24:47.817Z,0.79
2022-12-19T15:26:49.672Z,0.76
2022-12-19T15:28:51.171Z,0.74
2022-12-19T15:30:53.091Z,0.68
2022-12-19T15:32:54.920Z,0.68
2022-12-19T15:34:56.048Z,0.57
2022-12-19T15:36:57.208Z,0.5
2022-12-19T15:38:58.288Z,0.47
2022-12-19T15:41:00.140Z,0.5
2022-12-19T15:43:01.532Z,0.44
2022-12-19T15:45:02.747Z,0.53
2022-12-19T15:47:04.426Z,0.52
2022-12-19T15:49:06.274Z,0.54
2022-12-19T15:51:08.304Z,0.54
2022-12-19T15:53:16.185Z,0.49
2022-12-19T15:55:11.627Z,0.47
2022-12-19T15:57:13.297Z,0.46
2022-12-19T15:59:14.468Z,0.4
2022-12-19T16:01:59.786Z,0.35
2022-12-19T16:04:01.759Z,0.37
2022-12-19T16:06:03.522Z,0.39
2022-12-19T16:08:05.469Z,0.46
2022-12-19T16:10:06.995Z,0.49
2022-12-19T16:12:08.391Z,0.48
2022-12-19T16:14:10.017Z,0.49
2022-12-19T16:16:15.259Z,0.41
2022-12-19T16:18:12.775Z,0.36
2022-12-19T16:20:14.506Z,0.3
2022-12-19T16:22:16.369Z,0.26
2022-12-19T16:24:17.869Z,0.23
2022-12-19T16:26:19.206Z,0.27
2022-12-19T16:28:20.999Z,0.2
2022-12-19T16:30:22.853Z,0.19
2022-12-19T16:32:24.752Z,0.09
2022-12-19T16:34:26.347Z,0.04
2022-12-19T16:36:27.973Z,0
2022-12-19T16:38:29.299Z,-0.03
2022-12-19T16:40:30.769Z,0.04
2022-12-19T16:42:32.208Z,-0.05
2022-12-19T16:44:33.747Z,-0.09
2022-12-19T16:46:35.004Z,-0.02
2022-12-19T16:48:37.004Z,-0.04
2022-12-19T16:50:38.139Z,-0.09
2022-12-19T16:52:42.632Z,-0.15
2022-12-19T16:54:41.506Z,-0.14
2022-12-19T16:56:42.974Z,-0.12
2022-12-19T16:58:44.732Z,-0.17
2022-12-19T17:00:46.075Z,-0.17
2022-12-19T17:02:48.054Z,-0.22
2022-12-19T17:04:53.879Z,-0.27
2022-12-19T17:06:51.414Z,-0.29
2022-12-19T17:08:52.567Z,-0.29
2022-12-19T17:10:54.572Z,-0.21
2022-12-19T17:12:56.372Z,-0.28
2022-12-19T17:14:58.099Z,-0.33
2022-12-19T17:16:59.741Z,-0.32
2022-12-19T17:19:01.375Z,-0.36
2022-12-19T17:21:03.049Z,-0.28
2022-12-19T17:23:04.271Z,-0.39
2022-12-19T17:25:05.367Z,-0.32
2022-12-19T17:27:06.692Z,-0.36
2022-12-19T17:29:08.456Z,-0.36
2022-12-19T17:31:10.183Z,-0.38
2022-12-19T17:33:11.792Z,-0.37
2022-12-19T17:37:14.716Z,-0.38
2022-12-19T17:39:16.632Z,-0.37
2022-12-19T17:41:18.312Z,-0.44
2022-12-19T17:43:19.507Z,-0.44
2022-12-19T17:45:20.946Z,-0.41
2022-12-19T17:47:22.287Z,-0.41
2022-12-19T17:49:24.105Z,-0.45
2022-12-19T17:51:25.608Z,-0.39
2022-12-19T17:53:27.485Z,-0.43
2022-12-19T17:55:29.037Z,-0.5
2022-12-19T17:57:31.021Z,-0.5
2022-12-19T17:59:32.148Z,-0.5
2022-12-19T18:01:33.935Z,-0.52
2022-12-19T18:03:35.426Z,-0.5
2022-12-19T18:05:36.466Z,-0.56
2022-12-19T18:07:38.184Z,-0.62
2022-12-19T18:09:39.967Z,-0.72
2022-12-19T18:11:42.141Z,-0.6
2022-12-19T18:13:43.145Z,-0.63
2022-12-19T18:15:44.308Z,-0.62
2022-12-19T18:17:46.282Z,-0.54
2022-12-19T18:19:47.987Z,-0.59
2022-12-19T18:21:49.822Z,-0.52
2022-12-19T18:23:51.583Z,-0.65
2022-12-19T18:25:59.414Z,-0.72
2022-12-19T18:27:55.459Z,-0.64
2022-12-19T18:29:57.035Z,-0.57
2022-12-19T18:31:58.165Z,-0.63
2022-12-19T18:34:03.780Z,-0.72
2022-12-19T18:36:00.919Z,-0.63
2022-12-19T18:38:01.977Z,-0.67
2022-12-19T18:40:03.939Z,-0.79
2022-12-19T18:42:05.587Z,-0.83
2022-12-19T18:44:06.913Z,-0.65
2022-12-19T18:46:08.964Z,-0.68
2022-12-19T18:48:10.496Z,-0.78
2022-12-19T18:50:12.156Z,-0.79
2022-12-19T18:52:13.627Z,-0.84
2022-12-19T18:54:15.562Z,-0.88
2022-12-19T18:56:16.657Z,-0.91
2022-12-19T18:58:17.951Z,-0.83
2022-12-19T19:00:19.187Z,-0.83
2022-12-19T19:02:20.560Z,-0.95
2022-12-19T19:04:22.517Z,-1.1
2022-12-19T19:06:24.293Z,-1.09
2022-12-19T19:08:26.018Z,-1.1
2022-12-19T19:10:27.003Z,-1.16
2022-12-19T19:12:28.249Z,-1.16
2022-12-19T19:14:29.491Z,-1.19
2022-12-19T19:16:31.529Z,-1.23
2022-12-19T19:18:33.436Z,-1.29
2022-12-19T19:20:35.263Z,-1.36
2022-12-19T19:22:36.703Z,-1.41
2022-12-19T19:24:37.930Z,-1.47
2022-12-19T19:26:39.474Z,-1.38
2022-12-19T19:28:41.490Z,-1.34
2022-12-19T19:30:42.666Z,-1.38
2022-12-19T19:32:44.388Z,-1.34
2022-12-19T19:34:46.191Z,-1.41
2022-12-19T19:36:48.111Z,-1.43
2022-12-19T19:38:49.716Z,-1.5
2022-12-19T19:40:51.163Z,-1.47
2022-12-19T19:42:52.399Z,-1.47
2022-12-19T19:44:54.322Z,-1.34
2022-12-19T19:46:55.536Z,-1.36
2022-12-19T19:48:56.715Z,-1.38
2022-12-19T19:50:58.464Z,-1.38
2022-12-19T19:53:00.047Z,-1.42
2022-12-19T19:55:01.561Z,-1.37
2022-12-19T19:57:03.344Z,-1.38
2022-12-19T19:59:05.253Z,-1.44
2022-12-19T20:01:06.628Z,-1.42
2022-12-19T20:03:09.976Z,-1.46
2022-12-19T20:05:09.766Z,-1.43
2022-12-19T20:07:11.020Z,-1.45
2022-12-19T20:09:12.545Z,-1.48
2022-12-19T20:11:14.642Z,-1.43
2022-12-19T20:13:15.715Z,-1.33
2022-12-19T20:15:17.217Z,-1.36
2022-12-19T20:17:18.388Z,-1.25
2022-12-19T20:19:20.264Z,-1.15
2022-12-19T20:21:21.900Z,-1.19
2022-12-19T20:23:23.829Z,-1.17
2022-12-19T20:25:25.729Z,-1.22
2022-12-19T20:27:26.832Z,-1.26
2022-12-19T20:29:28.069Z,-1.33
2022-12-19T20:31:29.990Z,-1.42
2022-12-19T20:33:31.312Z,-1.47
2022-12-19T20:35:33.016Z,-1.49
2022-12-19T20:37:35.064Z,-1.48
2022-12-19T20:39:36.547Z,-1.47
2022-12-19T20:41:38.335Z,-1.39
2022-12-19T20:43:40.113Z,-1.36
2022-12-19T20:45:41.291Z,-1.26
2022-12-19T20:47:43.135Z,-1.25
2022-12-19T20:49:44.374Z,-1.25
2022-12-19T20:51:46.234Z,-1.17
2022-12-19T20:53:47.270Z,-1.19
2022-12-19T20:55:52.982Z,-1.14
2022-12-19T20:57:50.800Z,-1.2
2022-12-19T20:59:51.889Z,-1.14
2022-12-19T21:01:53.528Z,-1.13
2022-12-19T21:03:54.942Z,-1.16
2022-12-19T21:05:56.886Z,-1.12
2022-12-19T21:07:58.103Z,-1.17
2022-12-19T21:09:59.665Z,-1.19
2022-12-19T21:12:01.526Z,-1.19
2022-12-19T21:16:05.194Z,-1.15
2022-12-19T21:18:06.265Z,-1.19
2022-12-19T21:20:08.051Z,-1.15
2022-12-19T21:22:09.617Z,-1.17
2022-12-19T21:24:11.112Z,-1.18
2022-12-19T21:26:12.090Z,-1.19
2022-12-19T21:28:13.935Z,-1.17
2022-12-19T21:30:15.452Z,-1.16
2022-12-19T21:32:18.786Z,-1.19
2022-12-19T21:34:18.766Z,-1.17
2022-12-19T21:36:19.910Z,-1.18
2022-12-19T21:38:21.866Z,-1.16
2022-12-19T21:40:23.779Z,-1.19
2022-12-19T21:42:25.541Z,-1.2
2022-12-19T21:44:27.328Z,-1.18
2022-12-19T21:46:28.600Z,-1.21
2022-12-19T21:48:30.378Z,-1.24
2022-12-19T21:50:31.797Z,-1.28
2022-12-19T21:52:33.642Z,-1.3
2022-12-19T21:54:35.581Z,-1.28
2022-12-19T21:56:36.873Z,-1.35
2022-12-19T21:58:37.991Z,-1.34
2022-12-19T22:00:39.382Z,-1.37
2022-12-19T22:02:50.698Z,-1.35
2022-12-19T22:04:42.492Z,-1.36
2022-12-19T22:06:44.133Z,-1.39
2022-12-19T22:08:45.668Z,-1.41
2022-12-19T22:10:47.039Z,-1.44
2022-12-19T22:12:48.360Z,-1.55
2022-12-19T22:14:49.735Z,-1.58
2022-12-19T22:16:51.391Z,-1.61
2022-12-19T22:18:53.384Z,-1.71
2022-12-19T22:20:55.136Z,-1.69
2022-12-19T22:22:56.342Z,-1.67
2022-12-19T22:24:57.589Z,-1.65
2022-12-19T22:26:59.284Z,-1.66
2022-12-19T22:29:00.623Z,-1.58
2022-12-19T22:31:02.206Z,-1.55
2022-12-19T22:33:03.715Z,-1.48
2022-12-19T22:35:05.085Z,-1.42
2022-12-19T22:37:06.719Z,-1.39
2022-12-19T22:39:07.831Z,-1.35
2022-12-19T22:41:09.646Z,-1.33
2022-12-19T22:43:11.262Z,-1.34
2022-12-19T22:45:13.192Z,-1.29
2022-12-19T22:45:57.209Z,-1.28
2022-12-19T22:47:58.877Z,-1.24
2022-12-19T22:50:00.964Z,-1.23
2022-12-19T22:52:02.457Z,-1.41
2022-12-19T22:54:04.469Z,-1.41
2022-12-19T22:56:05.793Z,-1.45
2022-12-19T22:58:07.338Z,-1.44
2022-12-19T23:00:08.422Z,-1.42
2022-12-19T23:02:10.505Z,-1.42
2022-12-19T23:04:12.314Z,-1.42
2022-12-19T23:06:13.580Z,-1.37
2022-12-19T23:08:14.745Z,-1.34
2022-12-19T23:10:16.370Z,-1.33
2022-12-19T23:12:18.425Z,-1.3
2022-12-19T23:14:19.979Z,-1.27
2022-12-19T23:16:21.314Z,-1.22
2022-12-19T23:18:22.771Z,-1.17
2022-12-19T23:20:24.735Z,-1.16
2022-12-19T23:22:25.820Z,-1.15
2022-12-19T23:24:27.790Z,-1.07
2022-12-19T23:26:29.221Z,-1.02
2022-12-19T23:28:30.776Z,-0.97
2022-12-19T23:30:32.800Z,-0.94
2022-12-19T23:32:34.678Z,-0.89
2022-12-19T23:34:36.288Z,-0.86
2022-12-19T23:37:09.414Z,-0.85
2022-12-19T23:38:39.707Z,-0.87
2022-12-19T23:40:41.210Z,-0.86
2022-12-19T23:42:42.698Z,-0.76
2022-12-19T23:44:43.757Z,-0.73
2022-12-19T23:46:45.136Z,-0.68
2022-12-19T23:48:46.501Z,-0.71
2022-12-19T23:50:47.594Z,-0.78
2022-12-19T23:52:49.142Z,-0.74
2022-12-19T23:54:51.202Z,-0.72
2022-12-19T23:56:52.937Z,-0.64
2022-12-19T23:58:54.135Z,-0.65
